createdAt,value
2023-04-15T00:01:55.613Z,7.70
2023-04-15T00:04:22.730Z,7.70
2023-04-15T00:06:53.130Z,7.70
2023-04-15T00:09:21.135Z,7.60
2023-04-15T00:11:48.346Z,7.60
2023-04-15T00:14:16.748Z,7.60
2023-04-15T00:16:43.732Z,7.60
2023-04-15T00:19:12.310Z,7.60
2023-04-15T00:21:39.290Z,7.50
2023-04-15T00:24:07.887Z,7.50
2023-04-15T00:26:35.844Z,7.50
2023-04-15T00:29:03.900Z,7.50
2023-04-15T00:31:31.683Z,7.40
2023-04-15T00:33:59.709Z,7.40
2023-04-15T00:36:26.651Z,7.40
2023-04-15T00:38:54.027Z,7.40
2023-04-15T00:41:23.012Z,7.40
2023-04-15T00:43:50.528Z,7.30
2023-04-15T00:46:21.990Z,7.30
2023-04-15T00:48:55.132Z,7.30
2023-04-15T00:51:22.498Z,7.30
2023-04-15T00:53:49.531Z,7.30
2023-04-15T00:56:17.682Z,7.20
2023-04-15T00:58:44.693Z,7.20
2023-04-15T01:01:11.722Z,7.20
2023-04-15T01:03:38.930Z,7.20
2023-04-15T01:06:07.507Z,7.20
2023-04-15T01:08:35.512Z,7.10
2023-04-15T01:11:03.772Z,7.10
2023-04-15T01:13:34.241Z,7.10
2023-04-15T01:16:03.237Z,7.00
2023-04-15T01:18:31.398Z,7.00
2023-04-15T01:21:00.782Z,7.00
2023-04-15T01:23:28.232Z,6.90
2023-04-15T01:25:56.679Z,6.90
2023-04-15T01:28:23.723Z,6.90
2023-04-15T01:30:50.945Z,6.90
2023-04-15T01:33:18.317Z,6.80
2023-04-15T01:35:46.371Z,6.80
2023-04-15T01:38:13.621Z,6.80
2023-04-15T01:40:40.928Z,6.80
2023-04-15T01:43:08.209Z,6.80
2023-04-15T01:45:35.244Z,6.80
2023-04-15T01:48:04.386Z,6.80
2023-04-15T01:50:31.504Z,6.70
2023-04-15T01:52:59.605Z,6.70
2023-04-15T01:55:27.054Z,6.70
2023-04-15T01:57:53.985Z,6.70
2023-04-15T02:00:22.984Z,6.60
2023-04-15T02:02:49.987Z,6.60
2023-04-15T02:05:20.039Z,6.60
2023-04-15T02:07:47.375Z,6.60
2023-04-15T02:10:15.515Z,6.60
2023-04-15T02:12:43.484Z,6.60
2023-04-15T02:15:11.139Z,6.50
2023-04-15T02:17:38.264Z,6.50
2023-04-15T02:20:08.820Z,6.50
2023-04-15T02:22:36.029Z,6.50
2023-04-15T02:25:03.522Z,6.40
2023-04-15T02:27:30.893Z,6.40
2023-04-15T02:29:58.118Z,6.40
2023-04-15T02:32:29.123Z,6.30
2023-04-15T02:34:56.406Z,6.30
2023-04-15T02:37:24.670Z,6.30
2023-04-15T02:39:51.701Z,6.30
2023-04-15T02:42:21.617Z,6.30
2023-04-15T02:44:49.750Z,6.30
2023-04-15T02:47:16.688Z,6.20
2023-04-15T02:49:43.933Z,6.20
2023-04-15T02:52:11.358Z,6.20
2023-04-15T02:54:39.357Z,6.20
2023-04-15T02:57:06.844Z,6.20
2023-04-15T02:59:33.836Z,6.20
2023-04-15T03:02:01.202Z,6.20
2023-04-15T03:04:30.253Z,6.10
2023-04-15T03:06:57.457Z,6.10
2023-04-15T03:09:24.413Z,6.10
2023-04-15T03:11:55.513Z,6.10
2023-04-15T03:14:23.213Z,6.00
2023-04-15T03:16:51.836Z,6.10
2023-04-15T03:19:18.890Z,6.00
2023-04-15T03:21:45.914Z,6.10
2023-04-15T03:24:12.926Z,6.00
2023-04-15T03:26:41.178Z,6.00
2023-04-15T03:29:08.380Z,6.00
2023-04-15T03:31:40.524Z,6.00
2023-04-15T03:34:08.555Z,6.00
2023-04-15T03:36:36.938Z,5.90
2023-04-15T03:39:05.094Z,5.90
2023-04-15T03:41:35.367Z,5.90
2023-04-15T03:44:02.459Z,5.90
2023-04-15T03:46:29.441Z,5.90
2023-04-15T03:48:56.451Z,5.90
2023-04-15T03:51:23.395Z,5.80
2023-04-15T03:53:51.145Z,5.80
2023-04-15T03:56:18.098Z,5.80
2023-04-15T03:58:45.318Z,5.80
2023-04-15T04:01:12.269Z,5.80
2023-04-15T04:03:39.487Z,5.80
2023-04-15T04:06:06.675Z,5.70
2023-04-15T04:08:33.754Z,5.70
2023-04-15T04:11:00.862Z,5.70
2023-04-15T04:13:30.628Z,5.70
2023-04-15T04:15:57.615Z,5.70
2023-04-15T04:18:24.872Z,5.70
2023-04-15T04:20:52.072Z,5.60
2023-04-15T04:23:20.486Z,5.60
2023-04-15T04:25:48.397Z,5.60
2023-04-15T04:28:15.719Z,5.50
2023-04-15T04:30:42.760Z,5.50
2023-04-15T04:33:09.750Z,5.50
2023-04-15T04:35:37.730Z,5.50
2023-04-15T04:38:05.062Z,5.50
2023-04-15T04:40:32.118Z,5.50
2023-04-15T04:42:59.131Z,5.40
2023-04-15T04:45:27.168Z,5.40
2023-04-15T04:47:54.109Z,5.40
2023-04-15T04:50:21.101Z,5.40
2023-04-15T04:52:48.074Z,5.40
2023-04-15T04:55:15.100Z,5.40
2023-04-15T04:57:42.205Z,5.40
2023-04-15T05:00:11.174Z,5.40
2023-04-15T05:02:38.833Z,5.40
2023-04-15T05:05:07.941Z,5.40
2023-04-15T05:07:34.891Z,5.40
2023-04-15T05:10:01.882Z,5.40
2023-04-15T05:12:28.824Z,5.40
2023-04-15T05:14:57.084Z,5.50
2023-04-15T05:17:24.089Z,5.50
2023-04-15T05:19:51.244Z,5.50
2023-04-15T05:22:21.519Z,5.60
2023-04-15T05:24:48.748Z,5.60
2023-04-15T05:27:25.091Z,5.70
2023-04-15T05:29:53.100Z,5.70
2023-04-15T05:32:26.343Z,5.80
2023-04-15T05:34:53.415Z,5.90
2023-04-15T05:37:23.337Z,6.00
2023-04-15T05:39:50.317Z,6.20
2023-04-15T05:42:17.742Z,6.30
2023-04-15T05:44:44.765Z,6.50
2023-04-15T05:47:11.881Z,6.60
2023-04-15T05:49:39.874Z,6.80
2023-04-15T05:52:06.874Z,6.90
2023-04-15T05:54:33.903Z,7.10
2023-04-15T05:57:01.168Z,7.30
2023-04-15T05:59:28.516Z,7.40
2023-04-15T06:01:55.494Z,7.50
2023-04-15T06:04:24.245Z,7.60
2023-04-15T06:06:51.382Z,7.60
2023-04-15T06:09:18.465Z,7.70
2023-04-15T06:11:45.476Z,7.70
2023-04-15T06:14:12.861Z,7.70
2023-04-15T06:16:40.258Z,7.70
2023-04-15T06:19:07.273Z,7.70
2023-04-15T06:21:34.294Z,7.70
2023-04-15T06:24:03.872Z,7.60
2023-04-15T06:26:31.233Z,7.60
2023-04-15T06:28:58.348Z,7.60
2023-04-15T06:31:25.626Z,7.60
2023-04-15T06:33:53.630Z,7.60
2023-04-15T06:36:23.488Z,7.60
2023-04-15T06:38:50.518Z,7.50
2023-04-15T06:41:18.823Z,7.60
2023-04-15T06:43:45.886Z,7.70
2023-04-15T06:46:13.149Z,7.70
2023-04-15T06:48:41.422Z,7.80
2023-04-15T06:51:08.948Z,7.90
2023-04-15T06:53:40.865Z,8.00
2023-04-15T06:56:10.623Z,8.10
2023-04-15T06:58:37.682Z,8.30
2023-04-15T07:01:08.960Z,8.40
2023-04-15T07:03:36.051Z,8.60
2023-04-15T07:06:09.076Z,8.80
2023-04-15T07:08:36.108Z,8.90
2023-04-15T07:11:04.371Z,9.10
2023-04-15T07:13:32.462Z,9.20
2023-04-15T07:15:59.623Z,9.40
2023-04-15T07:18:27.895Z,9.50
2023-04-15T07:20:55.229Z,9.70
2023-04-15T07:23:36.786Z,9.80
2023-04-15T07:26:05.059Z,10.00
2023-04-15T07:28:32.397Z,10.10
2023-04-15T07:31:00.756Z,10.20
2023-04-15T07:33:30.245Z,10.20
2023-04-15T07:35:57.433Z,10.20
2023-04-15T07:38:27.144Z,10.30
2023-04-15T07:40:54.273Z,10.20
2023-04-15T07:43:22.789Z,10.30
2023-04-15T07:45:52.050Z,10.30
2023-04-15T07:48:19.199Z,10.30
2023-04-15T07:50:49.435Z,10.30
2023-04-15T07:53:16.410Z,10.40
2023-04-15T07:55:44.784Z,10.50
2023-04-15T07:58:13.748Z,10.60
2023-04-15T08:00:44.214Z,10.80
2023-04-15T08:03:16.686Z,10.90
2023-04-15T08:05:46.063Z,11.00
2023-04-15T08:08:21.376Z,11.20
2023-04-15T08:10:52.843Z,11.20
2023-04-15T08:13:23.039Z,11.40
2023-04-15T08:16:14.734Z,11.50
2023-04-15T08:18:41.846Z,11.50
2023-04-15T08:21:10.720Z,11.50
2023-04-15T08:23:39.110Z,11.50
2023-04-15T08:26:06.275Z,11.50
2023-04-15T08:28:34.956Z,11.60
2023-04-15T08:31:02.906Z,11.70
2023-04-15T08:33:31.116Z,11.80
2023-04-15T08:38:39.688Z,11.80
2023-04-15T08:41:18.846Z,11.80
2023-04-15T08:43:57.034Z,11.90
2023-04-15T08:46:24.269Z,12.00
2023-04-15T08:48:57.474Z,12.10
2023-04-15T08:51:25.302Z,12.20
2023-04-15T08:53:54.364Z,12.30
2023-04-15T08:56:24.814Z,12.50
2023-04-15T08:58:55.189Z,12.50
2023-04-15T09:01:23.150Z,12.60
2023-04-15T09:03:54.730Z,12.60
2023-04-15T09:06:23.130Z,12.50
2023-04-15T09:08:50.676Z,12.50
2023-04-15T09:11:19.970Z,12.60
2023-04-15T09:13:47.243Z,12.70
2023-04-15T09:16:14.463Z,12.70
2023-04-15T09:18:41.821Z,12.80
2023-04-15T09:21:14.160Z,12.90
2023-04-15T09:23:54.196Z,12.90
2023-04-15T09:26:30.833Z,12.90
2023-04-15T09:29:09.457Z,13.00
2023-04-15T09:31:37.260Z,13.00
2023-04-15T09:34:04.489Z,13.20
2023-04-15T09:36:57.940Z,13.30
2023-04-15T09:39:27.512Z,13.40
2023-04-15T09:42:06.949Z,13.40
2023-04-15T09:44:34.195Z,13.50
2023-04-15T09:47:02.982Z,13.90
2023-04-15T09:49:30.176Z,14.10
2023-04-15T09:52:05.752Z,14.40
2023-04-15T09:54:35.861Z,14.50
2023-04-15T09:57:10.642Z,14.60
2023-04-15T09:59:39.902Z,14.40
2023-04-15T10:02:09.765Z,14.40
2023-04-15T10:04:40.755Z,14.30
2023-04-15T10:07:09.586Z,14.30
2023-04-15T10:09:37.260Z,14.10
2023-04-15T10:12:12.099Z,14.10
2023-04-15T10:14:45.163Z,14.10
2023-04-15T10:17:13.107Z,14.20
2023-04-15T10:19:41.710Z,14.30
2023-04-15T10:22:12.243Z,14.40
2023-04-15T10:24:41.572Z,14.30
2023-04-15T10:27:09.082Z,14.30
2023-04-15T10:29:37.669Z,14.20
2023-04-15T10:32:11.625Z,14.10
2023-04-15T10:34:38.776Z,14.00
2023-04-15T10:37:06.087Z,14.00
2023-04-15T10:39:33.146Z,14.10
2023-04-15T10:42:15.521Z,14.10
2023-04-15T10:44:52.580Z,14.00
2023-04-15T10:47:21.992Z,14.00
2023-04-15T10:49:51.626Z,14.20
2023-04-15T10:52:24.464Z,14.30
2023-04-15T10:55:07.661Z,14.40
2023-04-15T10:57:36.344Z,14.30
2023-04-15T11:00:14.717Z,14.30
2023-04-15T11:02:53.805Z,14.40
2023-04-15T11:05:21.831Z,14.50
2023-04-15T11:07:55.052Z,14.50
2023-04-15T11:10:31.354Z,14.50
2023-04-15T11:13:06.292Z,14.50
2023-04-15T11:15:37.913Z,14.60
2023-04-15T11:18:17.106Z,14.70
2023-04-15T11:20:53.723Z,14.80
2023-04-15T11:23:31.658Z,14.80
2023-04-15T11:26:01.013Z,14.70
2023-04-15T11:28:29.956Z,14.80
2023-04-15T11:30:57.856Z,14.80
2023-04-15T11:33:25.921Z,14.70
2023-04-15T11:35:55.200Z,14.70
2023-04-15T11:38:22.609Z,14.70
2023-04-15T11:40:50.634Z,14.60
2023-04-15T11:43:23.010Z,14.60
2023-04-15T11:45:57.923Z,14.70
2023-04-15T11:48:27.768Z,14.70
2023-04-15T11:50:59.511Z,14.70
2023-04-15T11:53:44.404Z,14.80
2023-04-15T11:56:32.882Z,15.00
2023-04-15T11:59:00.165Z,15.10
2023-04-15T12:01:39.722Z,15.30
2023-04-15T12:04:17.321Z,15.30
2023-04-15T12:06:44.859Z,15.20
2023-04-15T12:09:17.208Z,15.30
2023-04-15T12:11:51.809Z,15.30
2023-04-15T12:14:24.770Z,15.30
2023-04-15T12:16:54.592Z,15.20
2023-04-15T12:19:27.671Z,15.30
2023-04-15T12:22:02.510Z,15.20
2023-04-15T12:24:31.894Z,15.40
2023-04-15T12:27:04.139Z,15.40
2023-04-15T12:29:32.064Z,15.50
2023-04-15T12:32:05.221Z,15.50
2023-04-15T12:34:34.148Z,15.30
2023-04-15T12:37:03.689Z,15.20
2023-04-15T12:39:32.715Z,15.20
2023-04-15T12:42:00.512Z,15.20
2023-04-15T12:44:28.580Z,15.10
2023-04-15T12:46:55.957Z,15.00
2023-04-15T12:49:24.336Z,14.80
2023-04-15T12:51:57.437Z,14.60
2023-04-15T12:54:24.431Z,14.40
2023-04-15T12:56:52.768Z,14.40
2023-04-15T12:59:20.296Z,14.20
2023-04-15T13:01:48.820Z,14.10
2023-04-15T13:04:17.285Z,14.10
2023-04-15T13:06:44.384Z,14.10
2023-04-15T13:09:14.027Z,14.10
2023-04-15T13:11:41.415Z,14.00
2023-04-15T13:14:09.648Z,13.90
2023-04-15T13:16:36.920Z,13.80
2023-04-15T13:19:04.167Z,13.80
2023-04-15T13:21:35.164Z,13.70
2023-04-15T13:24:04.835Z,13.60
2023-04-15T13:26:32.236Z,13.60
2023-04-15T13:29:00.029Z,13.50
2023-04-15T13:31:27.312Z,13.50
2023-04-15T13:33:57.640Z,13.40
2023-04-15T13:36:26.397Z,13.40
2023-04-15T13:38:53.848Z,13.30
2023-04-15T13:41:22.852Z,13.30
2023-04-15T13:43:49.882Z,13.20
2023-04-15T13:46:17.227Z,13.10
2023-04-15T13:48:44.314Z,13.10
2023-04-15T13:51:12.826Z,12.90
2023-04-15T13:53:40.056Z,12.90
2023-04-15T13:56:08.609Z,12.80
2023-04-15T13:58:37.650Z,12.90
2023-04-15T14:01:06.945Z,13.00
2023-04-15T14:03:38.016Z,13.10
2023-04-15T14:06:06.305Z,13.10
2023-04-15T14:08:33.618Z,13.10
2023-04-15T14:11:00.863Z,13.00
2023-04-15T14:13:27.929Z,12.90
2023-04-15T14:15:54.901Z,12.80
2023-04-15T14:18:22.426Z,12.70
2023-04-15T14:20:49.544Z,12.70
2023-04-15T14:23:16.636Z,12.80
2023-04-15T14:25:46.064Z,13.00
2023-04-15T14:28:14.783Z,13.10
2023-04-15T14:30:42.124Z,13.20
2023-04-15T14:33:09.173Z,13.20
2023-04-15T14:35:36.539Z,13.10
2023-04-15T14:38:06.641Z,13.10
2023-04-15T14:40:33.789Z,13.20
2023-04-15T14:43:00.753Z,13.20
2023-04-15T14:45:27.801Z,13.20
2023-04-15T14:47:54.946Z,13.20
2023-04-15T14:50:23.210Z,13.10
2023-04-15T14:52:50.214Z,13.00
2023-04-15T14:55:17.247Z,13.00
2023-04-15T14:57:45.188Z,13.00
2023-04-15T15:00:15.832Z,12.90
2023-04-15T15:02:44.059Z,12.90
2023-04-15T15:05:12.472Z,12.80
2023-04-15T15:07:40.885Z,12.70
2023-04-15T15:10:08.243Z,12.70
2023-04-15T15:12:37.697Z,12.70
2023-04-15T15:15:25.153Z,12.70
2023-04-15T15:17:56.010Z,12.80
2023-04-15T15:20:25.741Z,12.80
2023-04-15T15:22:52.789Z,12.70
2023-04-15T15:25:21.053Z,12.70
2023-04-15T15:27:48.940Z,12.70
2023-04-15T15:30:15.975Z,12.50
2023-04-15T15:32:49.180Z,12.50
2023-04-15T15:35:16.960Z,12.50
2023-04-15T15:37:45.364Z,12.40
2023-04-15T15:40:19.262Z,12.30
2023-04-15T15:42:47.539Z,12.20
2023-04-15T15:45:14.576Z,12.10
2023-04-15T15:47:44.703Z,12.00
2023-04-15T15:50:13.784Z,11.80
2023-04-15T15:52:40.963Z,11.70
2023-04-15T15:55:09.557Z,11.60
2023-04-15T15:57:37.777Z,11.50
2023-04-15T16:00:13.804Z,11.40
2023-04-15T16:05:12.775Z,11.20
2023-04-15T16:07:39.921Z,11.20
2023-04-15T16:10:07.595Z,11.10
2023-04-15T16:12:35.891Z,11.00
2023-04-15T16:15:04.376Z,11.00
2023-04-15T16:17:32.567Z,11.00
2023-04-15T16:20:02.024Z,10.90
2023-04-15T16:22:30.396Z,10.90
2023-04-15T16:24:58.810Z,10.90
2023-04-15T16:27:26.336Z,10.80
2023-04-15T16:29:54.317Z,10.80
2023-04-15T16:32:21.537Z,10.80
2023-04-15T16:34:49.406Z,10.80
2023-04-15T16:37:16.843Z,10.80
2023-04-15T16:39:48.546Z,10.80
2023-04-15T16:42:16.412Z,10.80
2023-04-15T16:44:43.529Z,10.80
2023-04-15T16:47:13.793Z,10.80
2023-04-15T16:49:40.736Z,10.80
2023-04-15T16:52:07.867Z,10.70
2023-04-15T16:54:40.614Z,10.70
2023-04-15T16:57:08.703Z,10.60
2023-04-15T16:59:36.532Z,10.60
2023-04-15T17:02:03.954Z,10.60
2023-04-15T17:04:32.748Z,10.50
2023-04-15T17:07:02.549Z,10.50
2023-04-15T17:09:29.808Z,10.40
2023-04-15T17:11:58.955Z,10.40
2023-04-15T17:14:29.009Z,10.40
2023-04-15T17:17:05.173Z,10.30
2023-04-15T17:19:35.133Z,10.20
2023-04-15T17:22:05.317Z,10.20
2023-04-15T17:24:32.622Z,10.10
2023-04-15T17:27:00.327Z,10.10
2023-04-15T17:29:28.785Z,10.00
2023-04-15T17:31:56.332Z,9.90
2023-04-15T17:34:23.375Z,9.90
2023-04-15T17:36:54.058Z,9.80
2023-04-15T17:39:26.813Z,9.80
2023-04-15T17:41:57.879Z,9.80
2023-04-15T17:44:25.456Z,9.80
2023-04-15T17:46:54.336Z,9.80
2023-04-15T17:49:22.192Z,9.80
2023-04-15T17:51:49.445Z,9.80
2023-04-15T17:54:17.821Z,9.80
2023-04-15T17:56:45.932Z,9.80
2023-04-15T17:59:13.434Z,9.90
2023-04-15T18:01:43.342Z,9.90
2023-04-15T18:04:14.033Z,9.90
2023-04-15T18:06:41.267Z,9.90
2023-04-15T18:09:09.728Z,10.00
2023-04-15T18:11:37.423Z,10.00
2023-04-15T18:14:06.167Z,10.00
2023-04-15T18:16:33.420Z,10.00
2023-04-15T18:19:01.399Z,10.00
2023-04-15T18:21:29.706Z,10.00
2023-04-15T18:23:59.380Z,10.00
2023-04-15T18:26:27.853Z,9.90
2023-04-15T18:28:56.902Z,9.80
2023-04-15T18:31:24.794Z,9.70
2023-04-15T18:33:53.180Z,9.50
2023-04-15T18:36:20.302Z,9.50
2023-04-15T18:38:47.853Z,9.40
2023-04-15T18:41:15.171Z,9.40
2023-04-15T18:43:42.289Z,9.30
2023-04-15T18:46:12.542Z,9.30
2023-04-15T18:48:40.127Z,9.20
2023-04-15T18:51:11.017Z,9.20
2023-04-15T18:53:39.105Z,9.10
2023-04-15T18:56:07.075Z,9.10
2023-04-15T18:59:08.799Z,9.10
2023-04-15T19:01:26.576Z,9.00
2023-04-15T19:03:53.894Z,9.00
2023-04-15T19:06:22.493Z,9.00
2023-04-15T19:08:50.091Z,9.00
2023-04-15T19:11:18.474Z,9.00
2023-04-15T19:13:45.942Z,8.90
2023-04-15T19:16:12.940Z,9.00
2023-04-15T19:18:41.204Z,9.00
2023-04-15T19:21:10.502Z,9.00
2023-04-15T19:23:37.623Z,9.00
2023-04-15T19:26:04.698Z,9.00
2023-04-15T19:28:31.613Z,8.90
2023-04-15T19:30:58.605Z,8.90
2023-04-15T19:33:31.349Z,8.90
2023-04-15T19:36:04.380Z,8.90
2023-04-15T19:38:32.981Z,8.90
2023-04-15T19:41:00.019Z,8.90
2023-04-15T19:43:27.770Z,8.90
2023-04-15T19:45:55.132Z,8.90
2023-04-15T19:48:24.883Z,8.90
2023-04-15T19:50:51.943Z,8.90
2023-04-15T19:53:18.988Z,8.90
2023-04-15T19:55:48.519Z,8.90
2023-04-15T19:58:16.235Z,8.90
2023-04-15T20:00:46.056Z,8.90
2023-04-15T20:03:14.181Z,8.90
2023-04-15T20:05:41.910Z,8.90
2023-04-15T20:08:09.270Z,8.90
2023-04-15T20:10:37.288Z,8.90
2023-04-15T20:13:04.642Z,8.90
2023-04-15T20:15:31.640Z,8.90
2023-04-15T20:17:58.721Z,8.80
2023-04-15T20:20:26.441Z,8.80
2023-04-15T20:22:53.512Z,8.80
2023-04-15T20:25:20.505Z,8.90
2023-04-15T20:27:47.734Z,8.90
2023-04-15T20:30:15.766Z,8.90
2023-04-15T20:32:44.655Z,8.90
2023-04-15T20:35:11.842Z,8.90
2023-04-15T20:37:40.505Z,8.90
2023-04-15T20:40:10.076Z,8.90
2023-04-15T20:42:37.139Z,8.90
2023-04-15T20:45:04.495Z,9.00
2023-04-15T20:47:31.587Z,9.00
2023-04-15T20:49:58.562Z,8.90
2023-04-15T20:52:26.052Z,9.00
2023-04-15T20:54:54.924Z,9.00
2023-04-15T20:57:27.541Z,9.00
2023-04-15T20:59:57.839Z,9.00
2023-04-15T21:02:25.348Z,9.00
2023-04-15T21:04:52.880Z,9.00
2023-04-15T21:07:21.055Z,9.00
2023-04-15T21:09:49.524Z,9.00
2023-04-15T21:12:16.579Z,9.00
2023-04-15T21:14:44.164Z,9.10
2023-04-15T21:17:12.946Z,9.00
2023-04-15T21:19:40.607Z,9.00
2023-04-15T21:22:08.319Z,9.10
2023-04-15T21:24:36.388Z,9.10
2023-04-15T21:27:03.657Z,9.10
2023-04-15T21:29:33.107Z,9.10
2023-04-15T21:32:00.411Z,9.10
2023-04-15T21:34:28.018Z,9.10
2023-04-15T21:36:55.555Z,9.10
2023-04-15T21:39:23.339Z,9.10
2023-04-15T21:41:51.307Z,9.10
2023-04-15T21:44:18.675Z,9.10
2023-04-15T21:46:46.244Z,9.10
2023-04-15T21:49:14.073Z,9.10
2023-04-15T21:51:42.147Z,9.20
2023-04-15T21:54:09.436Z,9.20
2023-04-15T21:56:37.918Z,9.20
2023-04-15T21:59:05.141Z,9.20
2023-04-15T22:01:32.419Z,9.20
2023-04-15T22:04:00.446Z,9.20
2023-04-15T22:06:27.824Z,9.20
2023-04-15T22:09:10.652Z,9.20
2023-04-15T22:11:46.753Z,9.20
2023-04-15T22:14:17.171Z,9.20
2023-04-15T22:16:45.329Z,9.20
2023-04-15T22:19:12.445Z,9.20
2023-04-15T22:21:39.447Z,9.20
2023-04-15T22:24:33.584Z,9.20
2023-04-15T22:26:53.835Z,9.30
2023-04-15T22:29:21.595Z,9.20
2023-04-15T22:31:49.091Z,9.30
2023-04-15T22:34:21.579Z,9.30
2023-04-15T22:36:49.374Z,9.30
2023-04-15T22:39:17.058Z,9.30
2023-04-15T22:41:44.828Z,9.20
2023-04-15T22:44:12.079Z,9.20
2023-04-15T22:46:39.527Z,9.20
2023-04-15T22:49:09.313Z,9.20
2023-04-15T22:51:36.724Z,9.20
2023-04-15T22:54:04.041Z,9.30
2023-04-15T22:56:32.822Z,9.30
2023-04-15T22:59:00.030Z,9.30
2023-04-15T23:01:27.260Z,9.30
2023-04-15T23:03:56.691Z,9.30
2023-04-15T23:06:31.856Z,9.30
2023-04-15T23:09:00.172Z,9.40
2023-04-15T23:11:28.485Z,9.30
2023-04-15T23:13:55.847Z,9.40
2023-04-15T23:16:23.115Z,9.30
2023-04-15T23:21:34.064Z,9.40
2023-04-15T23:24:01.393Z,9.40
2023-04-15T23:26:28.653Z,9.40
2023-04-15T23:28:56.334Z,9.40
2023-04-15T23:31:23.454Z,9.40
2023-04-15T23:33:51.457Z,9.50
2023-04-15T23:36:19.405Z,9.40
2023-04-15T23:38:46.742Z,9.50
2023-04-15T23:41:14.095Z,9.50
2023-04-15T23:43:44.159Z,9.50
2023-04-15T23:46:15.055Z,9.40
2023-04-15T23:48:42.576Z,9.50
2023-04-15T23:51:10.119Z,9.50
2023-04-15T23:53:59.085Z,9.50
2023-04-15T23:56:48.522Z,9.50
2023-04-15T23:59:17.162Z,9.40
